Terminal Aerodrome Forecast
Issued by NWS Greer, SC

Home | Current Version | Previous Version | Text Only | Print | Product List | Glossary On
Versions: 1 2 3 4 5 6 7 8 9 10 11 12 13 14 15 16 17
000
FTUS42 KGSP 220500
TAFGSP
TAF
KGSP 220539Z 2206/2306 00000KT P6SM SCT250
     FM221400 34005KT P6SM SCT120 BKN250
     FM221900 24005KT P6SM SCT060 SCT120
     FM230100 VRB03KT P6SM FEW060 BKN120=

USA.gov is the U.S. government's official web portal to all federal, state and local government web resources and services.